Destruction Bay, Canada
Current Conditions -  °F | °C
As of 12:00 PM on Monday 24 Nov 2014 (Local Time) from CYDB Reporting Station
Moderate Fog Moderate Fog  
Wind Chill: -10°   Ceiling: Unl
Heat Index:   Visibility: 25mi
Dew Point: -4°   Wind: 5mph
Humidity: 85%   Direction: 290°WNW
Pressure: 29.71"   Gusts: NA
Location:  61.25°N, 138.8°W
Report Text: CYDB 242000Z 29004KT 25SM VCFG FEW002 FEW090 SCT230 M18/M20 A2971 RMK ST1AC1CI2 FROIN SLP133
Loading
Personal Weather Stations






























Interactive Weather Map New forecast layout! Learn more

10-Day Weather Forecast

Advertisements
Track Severe Weather on mobile